createdAt,value
2022-09-11T00:01:15.176Z,99816.06
2022-09-11T00:03:43.229Z,99809.78
2022-09-11T00:06:14.611Z,99815.34
2022-09-11T00:08:43.006Z,99807.19
2022-09-11T00:11:11.031Z,99810.16
2022-09-11T00:13:40.138Z,99817.41
2022-09-11T00:16:18.868Z,99803.47
2022-09-11T00:18:46.773Z,99793.63
2022-09-11T00:21:13.455Z,99809.25
2022-09-11T00:23:40.198Z,99809.34
2022-09-11T00:26:06.916Z,99787.25
2022-09-11T00:28:34.419Z,99801.63
2022-09-11T00:31:05.209Z,99810.06
2022-09-11T00:33:33.384Z,99808.56
2022-09-11T00:36:03.812Z,99812.31
2022-09-11T00:38:33.017Z,99808.44
2022-09-11T00:41:01.944Z,99807.59
2022-09-11T00:44:04.653Z,99801.97
2022-09-11T00:46:41.918Z,99805.91
2022-09-11T00:49:15.868Z,99793.34
2022-09-11T00:51:47.833Z,99793.44
2022-09-11T00:54:18.166Z,99801.56
2022-09-11T00:56:45.002Z,99796.13
2022-09-11T00:59:25.106Z,99790.75
2022-09-11T01:01:51.761Z,99787.84
2022-09-11T01:04:41.780Z,99778.41
2022-09-11T01:07:10.193Z,99789.28
2022-09-11T01:09:37.095Z,99767.72
2022-09-11T01:12:19.523Z,99793.94
2022-09-11T01:15:28.243Z,99796.03
2022-09-11T01:18:22.321Z,99780.66
2022-09-11T01:21:02.092Z,99733.28
2022-09-11T01:23:31.487Z,99802.56
2022-09-11T01:26:22.741Z,99807.50
2022-09-11T01:28:57.628Z,99814.31
2022-09-11T01:31:30.550Z,99784.25
2022-09-11T01:34:03.245Z,99800.63
2022-09-11T01:36:34.857Z,99791.84
2022-09-11T01:39:04.072Z,99809.38
2022-09-11T01:41:32.689Z,99819.94
2022-09-11T01:44:34.561Z,99814.16
2022-09-11T01:47:05.145Z,99804.44
2022-09-11T01:49:51.122Z,99799.59
2022-09-11T01:52:24.326Z,99825.81
2022-09-11T01:54:56.722Z,99788.59
2022-09-11T01:57:35.775Z,99825.78
2022-09-11T02:00:08.191Z,99803.09
2022-09-11T02:02:46.952Z,99821.72
2022-09-11T02:05:18.475Z,99814.59
2022-09-11T02:07:55.766Z,99815.34
2022-09-11T02:10:31.155Z,99818.41
2022-09-11T02:13:03.064Z,99826.47
2022-09-11T02:15:39.739Z,99833.19
2022-09-11T02:18:16.909Z,99831.34
2022-09-11T02:20:45.219Z,99831.34
2022-09-11T02:23:11.829Z,99821.28
2022-09-11T02:25:39.652Z,99787.09
2022-09-11T02:28:06.282Z,99805.91
2022-09-11T02:30:33.130Z,99833.72
2022-09-11T02:32:59.888Z,99796.31
2022-09-11T02:35:37.252Z,99822.72
2022-09-11T02:38:25.232Z,99845.47
2022-09-11T02:41:00.354Z,99848.81
2022-09-11T02:43:42.574Z,99837.88
2022-09-11T02:46:26.146Z,99819.44
2022-09-11T02:49:09.033Z,99841.38
2022-09-11T02:51:38.681Z,99849.34
2022-09-11T02:54:23.332Z,99853.44
2022-09-11T02:57:06.068Z,99851.41
2022-09-11T02:59:38.973Z,99844.50
2022-09-11T03:02:10.230Z,99848.56
2022-09-11T03:04:37.208Z,99833.72
2022-09-11T03:07:04.388Z,99830.84
2022-09-11T03:09:31.276Z,99827.56
2022-09-11T03:12:04.429Z,99841.06
2022-09-11T03:14:35.837Z,99849.59
2022-09-11T03:17:04.833Z,99854.16
2022-09-11T03:19:31.949Z,99857.59
2022-09-11T03:21:58.727Z,99853.50
2022-09-11T03:24:26.343Z,99863.75
2022-09-11T03:26:53.059Z,99817.53
2022-09-11T03:29:19.717Z,99848.69
2022-09-11T03:31:47.292Z,99851.97
2022-09-11T03:34:14.510Z,99855.47
2022-09-11T03:36:41.232Z,99862.84
2022-09-11T03:39:07.875Z,99856.66
2022-09-11T03:41:35.805Z,99857.88
2022-09-11T03:44:04.879Z,99865.50
2022-09-11T03:46:32.959Z,99864.31
2022-09-11T03:48:59.782Z,99877.63
2022-09-11T03:51:26.928Z,99871.47
2022-09-11T03:53:54.055Z,99854.72
2022-09-11T03:56:21.151Z,99881.50
2022-09-11T03:58:48.922Z,99873.00
2022-09-11T04:01:18.944Z,99889.19
2022-09-11T04:03:46.098Z,99888.16
2022-09-11T04:06:20.815Z,99888.13
2022-09-11T04:08:47.527Z,99888.53
2022-09-11T04:11:14.247Z,99895.03
2022-09-11T04:13:42.126Z,99891.31
2022-09-11T04:16:17.560Z,99878.72
2022-09-11T04:18:47.501Z,99892.47
2022-09-11T04:21:16.603Z,99900.88
2022-09-11T04:23:45.625Z,99857.88
2022-09-11T04:26:18.038Z,99907.00
2022-09-11T04:28:47.578Z,99910.38
2022-09-11T04:31:16.566Z,99875.16
2022-09-11T04:33:44.221Z,99922.31
2022-09-11T04:36:13.995Z,99914.97
2022-09-11T04:38:41.896Z,99862.38
2022-09-11T04:41:11.664Z,99925.00
2022-09-11T04:43:40.233Z,99911.72
2022-09-11T04:46:13.371Z,99907.53
2022-09-11T04:48:52.912Z,99928.34
2022-09-11T04:51:28.950Z,99918.94
2022-09-11T04:53:57.800Z,99917.56
2022-09-11T04:56:37.961Z,99921.56
2022-09-11T04:59:26.875Z,99923.56
2022-09-11T05:02:23.329Z,99937.50
2022-09-11T05:04:54.728Z,99925.41
2022-09-11T05:07:21.432Z,99936.72
2022-09-11T05:09:50.672Z,99937.88
2022-09-11T05:12:18.291Z,99899.78
2022-09-11T05:14:46.134Z,99936.13
2022-09-11T05:17:13.527Z,99954.59
2022-09-11T05:19:42.055Z,99908.31
2022-09-11T05:22:09.139Z,99922.03
2022-09-11T05:24:39.380Z,99939.47
2022-09-11T05:27:06.855Z,99946.38
2022-09-11T05:29:39.107Z,99958.94
2022-09-11T05:32:10.985Z,99938.91
2022-09-11T05:34:37.574Z,99958.31
2022-09-11T05:37:05.374Z,99957.75
2022-09-11T05:39:37.773Z,99961.88
2022-09-11T05:42:05.813Z,99963.94
2022-09-11T05:44:37.194Z,99957.44
2022-09-11T05:47:04.682Z,99988.16
2022-09-11T05:49:31.609Z,99983.41
2022-09-11T05:51:59.818Z,99991.44
2022-09-11T05:54:27.396Z,99969.94
2022-09-11T05:56:54.568Z,99974.63
2022-09-11T05:59:27.081Z,99983.34
2022-09-11T06:01:54.266Z,100001.44
2022-09-11T06:04:32.117Z,99962.28
2022-09-11T06:06:59.665Z,100014.50
2022-09-11T06:09:27.767Z,100007.56
2022-09-11T06:11:54.555Z,100023.16
2022-09-11T06:14:21.962Z,100018.75
2022-09-11T06:16:50.592Z,100015.31
2022-09-11T06:19:17.349Z,100025.38
2022-09-11T06:21:45.184Z,100025.91
2022-09-11T06:24:22.589Z,100015.06
2022-09-11T06:26:49.868Z,100036.69
2022-09-11T06:29:19.428Z,99941.16
2022-09-11T06:31:51.232Z,100035.44
2022-09-11T06:34:21.534Z,100011.34
2022-09-11T06:36:51.854Z,100018.03
2022-09-11T06:39:23.076Z,100031.75
2022-09-11T06:41:50.790Z,100031.34
2022-09-11T06:44:20.126Z,100023.53
2022-09-11T06:46:47.784Z,100022.28
2022-09-11T06:49:14.594Z,100032.66
2022-09-11T06:51:59.671Z,100025.06
2022-09-11T06:54:27.331Z,100034.13
2022-09-11T06:56:55.448Z,100025.06
2022-09-11T06:59:23.876Z,100034.81
2022-09-11T07:01:51.665Z,100027.00
2022-09-11T07:04:18.581Z,99988.50
2022-09-11T07:06:48.176Z,100022.84
2022-09-11T07:09:15.843Z,100020.00
2022-09-11T07:11:48.376Z,100044.22
2022-09-11T07:14:21.026Z,100037.31
2022-09-11T07:16:50.929Z,100022.81
2022-09-11T07:19:19.068Z,100033.25
2022-09-11T07:21:45.817Z,100034.03
2022-09-11T07:24:12.708Z,100021.59
2022-09-11T07:26:41.956Z,100041.78
2022-09-11T07:29:14.576Z,100025.59
2022-09-11T07:31:42.736Z,100039.34
2022-09-11T07:34:10.930Z,100046.66
2022-09-11T07:36:37.618Z,100053.41
2022-09-11T07:39:08.035Z,100049.25
2022-09-11T07:41:39.413Z,100039.28
2022-09-11T07:44:15.265Z,100050.31
2022-09-11T07:46:42.030Z,100057.19
2022-09-11T07:49:11.218Z,100070.91
2022-09-11T07:51:41.012Z,100067.53
2022-09-11T07:54:09.850Z,100068.72
2022-09-11T07:56:38.400Z,100058.88
2022-09-11T07:59:08.634Z,100040.69
2022-09-11T08:01:37.647Z,100074.47
2022-09-11T08:04:08.061Z,100067.50
2022-09-11T08:06:37.169Z,100058.81
2022-09-11T08:09:10.681Z,100073.25
2022-09-11T08:11:45.857Z,100063.19
2022-09-11T08:14:13.661Z,100069.97
2022-09-11T08:16:41.906Z,100045.47
2022-09-11T08:19:14.577Z,100064.00
2022-09-11T08:21:42.218Z,100038.00
2022-09-11T08:24:12.633Z,100078.06
2022-09-11T08:26:40.535Z,100068.13
2022-09-11T08:29:07.219Z,100072.09
2022-09-11T08:31:35.253Z,100079.19
2022-09-11T08:34:03.608Z,100053.31
2022-09-11T08:36:30.477Z,100078.25
2022-09-11T08:39:02.767Z,100082.91
2022-09-11T08:41:49.825Z,100082.47
2022-09-11T08:44:38.526Z,100079.94
2022-09-11T08:47:24.400Z,100065.94
2022-09-11T08:50:01.490Z,100079.59
2022-09-11T08:52:29.839Z,100080.34
2022-09-11T08:54:59.300Z,100066.66
2022-09-11T08:57:48.648Z,100082.88
2022-09-11T09:00:27.606Z,100076.09
2022-09-11T09:03:30.190Z,100089.06
2022-09-11T09:06:15.985Z,100078.47
2022-09-11T09:08:56.508Z,100067.78
2022-09-11T09:11:40.400Z,100078.00
2022-09-11T09:14:44.531Z,100090.25
2022-09-11T09:17:14.823Z,100090.97
2022-09-11T09:20:07.057Z,100090.69
2022-09-11T09:22:53.207Z,100083.66
2022-09-11T09:25:23.141Z,100079.56
2022-09-11T09:28:02.091Z,100085.44
2022-09-11T09:30:40.659Z,100082.69
2022-09-11T09:33:52.497Z,100089.47
2022-09-11T09:36:31.658Z,100085.13
2022-09-11T09:39:00.078Z,100079.69
2022-09-11T09:41:46.028Z,100078.56
2022-09-11T09:44:23.025Z,100086.09
2022-09-11T09:46:52.879Z,100083.81
2022-09-11T09:49:27.774Z,100076.94
2022-09-11T09:52:03.558Z,100075.75
2022-09-11T09:54:36.299Z,100061.25
2022-09-11T09:57:13.715Z,100079.56
2022-09-11T09:59:46.072Z,100091.13
2022-09-11T10:02:13.538Z,100091.22
2022-09-11T10:04:40.633Z,100104.84
2022-09-11T10:07:07.291Z,100092.50
2022-09-11T10:09:34.270Z,100090.50
2022-09-11T10:12:07.272Z,100077.16
2022-09-11T10:14:58.124Z,100078.78
2022-09-11T10:17:29.319Z,100080.44
2022-09-11T10:20:19.649Z,100071.34
2022-09-11T10:23:26.652Z,100048.44
2022-09-11T10:25:54.437Z,100076.28
2022-09-11T10:28:33.320Z,100070.66
2022-09-11T10:31:04.957Z,100063.06
2022-09-11T10:33:36.201Z,100072.16
2022-09-11T10:36:06.470Z,100040.44
2022-09-11T10:38:46.869Z,100039.50
2022-09-11T10:41:13.792Z,100063.22
2022-09-11T10:43:53.193Z,100050.31
2022-09-11T10:46:19.742Z,100069.06
2022-09-11T10:48:55.373Z,100077.75
2022-09-11T10:51:24.680Z,100082.72
2022-09-11T10:54:38.302Z,100080.38
2022-09-11T10:57:20.118Z,100082.09
2022-09-11T11:00:08.523Z,100074.31
2022-09-11T11:02:39.841Z,100079.81
2022-09-11T11:05:18.101Z,100076.25
2022-09-11T11:08:06.233Z,100088.28
2022-09-11T11:11:04.015Z,100100.09
2022-09-11T11:13:46.937Z,100091.09
2022-09-11T11:16:16.282Z,100098.56
2022-09-11T11:18:52.121Z,100088.50
2022-09-11T11:21:18.700Z,100089.34
2022-09-11T11:23:54.199Z,100099.19
2022-09-11T11:26:27.575Z,100090.94
2022-09-11T11:29:03.285Z,100091.28
2022-09-11T11:31:55.626Z,100087.97
2022-09-11T11:34:37.511Z,100091.84
2022-09-11T11:37:17.868Z,100089.38
2022-09-11T11:40:23.415Z,100076.56
2022-09-11T11:43:01.083Z,100088.13
2022-09-11T11:45:52.383Z,100089.22
2022-09-11T11:48:26.157Z,100087.53
2022-09-11T11:51:17.466Z,100087.28
2022-09-11T11:54:06.644Z,100082.94
2022-09-11T11:57:05.482Z,100081.34
2022-09-11T11:59:45.733Z,100085.31
2022-09-11T12:02:29.279Z,100079.97
2022-09-11T12:05:02.143Z,100031.19
2022-09-11T12:07:34.113Z,100080.78
2022-09-11T12:10:02.957Z,100070.41
2022-09-11T12:12:33.876Z,100086.25
2022-09-11T12:15:09.985Z,100069.53
2022-09-11T12:17:39.817Z,100083.97
2022-09-11T12:20:12.316Z,100079.03
2022-09-11T12:22:48.568Z,100072.81
2022-09-11T12:25:21.411Z,100075.81
2022-09-11T12:27:53.371Z,100072.63
2022-09-11T12:30:25.318Z,100071.81
2022-09-11T12:32:55.340Z,100078.34
2022-09-11T12:35:31.443Z,100056.59
2022-09-11T12:38:14.463Z,100074.50
2022-09-11T12:40:46.780Z,100066.94
2022-09-11T12:43:28.295Z,100069.72
2022-09-11T12:45:56.710Z,100034.09
2022-09-11T12:48:38.713Z,100060.56
2022-09-11T12:51:15.267Z,100053.50
2022-09-11T12:53:47.133Z,100063.69
2022-09-11T12:56:21.833Z,100057.50
2022-09-11T12:58:57.667Z,100040.72
2022-09-11T13:01:30.492Z,100060.47
2022-09-11T13:04:12.729Z,100061.47
2022-09-11T13:06:51.850Z,100055.53
2022-09-11T13:09:21.438Z,100053.31
2022-09-11T13:11:50.929Z,100036.81
2022-09-11T13:14:30.208Z,100056.47
2022-09-11T13:16:58.743Z,100021.81
2022-09-11T13:19:34.084Z,100045.81
2022-09-11T13:22:00.698Z,100037.53
2022-09-11T13:24:32.544Z,100049.22
2022-09-11T13:26:59.736Z,100047.25
2022-09-11T13:29:30.439Z,100039.75
2022-09-11T13:32:00.549Z,100042.69
2022-09-11T13:34:29.533Z,100035.34
2022-09-11T13:36:57.711Z,100029.25
2022-09-11T13:39:26.693Z,100024.91
2022-09-11T13:42:02.641Z,100026.19
2022-09-11T13:44:42.610Z,100017.22
2022-09-11T13:47:19.138Z,100017.75
2022-09-11T13:49:47.896Z,100012.34
2022-09-11T13:52:15.708Z,100026.31
2022-09-11T13:55:12.303Z,100007.78
2022-09-11T13:58:21.304Z,100014.78
2022-09-11T14:00:50.488Z,100007.47
2022-09-11T14:03:31.813Z,99965.22
2022-09-11T14:06:15.093Z,100012.34
2022-09-11T14:08:48.904Z,100013.72
2022-09-11T14:11:26.062Z,100010.97
2022-09-11T14:14:01.004Z,99994.19
2022-09-11T14:16:35.660Z,100005.56
2022-09-11T14:19:14.944Z,100007.47
2022-09-11T14:21:48.082Z,100000.44
2022-09-11T14:24:33.006Z,100006.09
2022-09-11T14:27:01.868Z,99967.91
2022-09-11T14:29:33.498Z,99998.53
2022-09-11T14:32:28.345Z,99984.69
2022-09-11T14:34:55.462Z,99963.84
2022-09-11T14:37:23.845Z,99995.81
2022-09-11T14:39:58.036Z,99989.28
2022-09-11T14:42:30.960Z,99994.19
2022-09-11T14:44:59.294Z,99986.06
2022-09-11T14:47:28.715Z,99975.22
2022-09-11T14:49:57.549Z,99979.28
2022-09-11T14:52:27.160Z,99959.53
2022-09-11T14:54:55.150Z,99973.59
2022-09-11T14:57:24.613Z,99969.28
2022-09-11T14:59:52.586Z,99965.75
2022-09-11T15:02:21.943Z,99966.28
2022-09-11T15:04:50.073Z,99964.38
2022-09-11T15:07:18.797Z,99980.94
2022-09-11T15:09:46.490Z,99971.19
2022-09-11T15:12:14.486Z,99968.72
2022-09-11T15:14:56.621Z,99954.91
2022-09-11T15:17:25.348Z,99964.38
2022-09-11T15:19:53.425Z,99950.28
2022-09-11T15:22:20.864Z,99953.28
2022-09-11T15:24:48.789Z,99960.84
2022-09-11T15:27:17.340Z,99949.19
2022-09-11T15:29:45.139Z,99947.59
2022-09-11T15:32:14.547Z,99960.88
2022-09-11T15:34:45.275Z,99945.88
2022-09-11T15:37:12.104Z,99941.16
2022-09-11T15:39:39.070Z,99953.03
2022-09-11T15:42:07.625Z,99947.69
2022-09-11T15:44:35.909Z,99956.97
2022-09-11T15:47:04.371Z,99937.25
2022-09-11T15:49:31.822Z,99958.44
2022-09-11T15:52:00.379Z,99930.53
2022-09-11T15:54:27.845Z,99935.59
2022-09-11T15:56:54.624Z,99947.47
2022-09-11T15:59:21.293Z,99945.66
2022-09-11T16:01:48.775Z,99932.56
2022-09-11T16:04:20.267Z,99940.47
2022-09-11T16:06:48.471Z,99942.09
2022-09-11T16:09:20.442Z,99942.69
2022-09-11T16:11:56.857Z,99927.72
2022-09-11T16:14:27.175Z,99947.22
2022-09-11T16:16:56.720Z,99939.63
2022-09-11T16:19:47.604Z,99943.38
2022-09-11T16:22:14.445Z,99940.69
2022-09-11T16:24:42.489Z,99942.56
2022-09-11T16:27:10.353Z,99927.09
2022-09-11T16:30:15.589Z,99935.28
2022-09-11T16:32:34.093Z,99922.75
2022-09-11T16:35:01.009Z,99939.66
2022-09-11T16:37:28.474Z,99933.41
2022-09-11T16:39:55.615Z,99953.66
2022-09-11T16:42:22.368Z,99946.63
2022-09-11T16:44:50.133Z,99943.72
2022-09-11T16:47:17.574Z,99943.31
2022-09-11T16:50:06.017Z,99927.53
2022-09-11T16:52:32.249Z,99936.53
2022-09-11T16:54:59.492Z,99918.44
2022-09-11T16:57:27.305Z,99911.88
2022-09-11T16:59:54.294Z,99912.69
2022-09-11T17:02:22.018Z,99931.81
2022-09-11T17:04:48.713Z,99935.53
2022-09-11T17:07:15.371Z,99923.19
2022-09-11T17:09:48.395Z,99919.22
2022-09-11T17:12:17.685Z,99923.84
2022-09-11T17:14:44.434Z,99912.91
2022-09-11T17:17:31.213Z,99924.94
2022-09-11T17:19:59.363Z,99923.59
2022-09-11T17:22:26.886Z,99917.25
2022-09-11T17:24:54.075Z,99876.28
2022-09-11T17:27:21.016Z,99927.75
2022-09-11T17:30:21.648Z,99922.97
2022-09-11T17:32:48.329Z,99918.47
2022-09-11T17:35:15.203Z,99903.91
2022-09-11T17:37:42.708Z,99894.84
2022-09-11T17:40:10.002Z,99883.69
2022-09-11T17:42:36.710Z,99906.88
2022-09-11T17:45:03.812Z,99927.13
2022-09-11T17:47:32.878Z,99926.69
2022-09-11T17:50:03.185Z,99915.28
2022-09-11T17:52:32.047Z,99930.56
2022-09-11T17:54:58.697Z,99932.94
2022-09-11T17:57:25.583Z,99931.56
2022-09-11T17:59:53.035Z,99936.44
2022-09-11T18:02:19.893Z,99943.16
2022-09-11T18:04:49.741Z,99937.25
2022-09-11T18:07:17.818Z,99916.31
2022-09-11T18:09:45.454Z,99958.59
2022-09-11T18:12:12.210Z,99957.78
2022-09-11T18:14:39.872Z,99960.06
2022-09-11T18:17:06.663Z,99950.16
2022-09-11T18:19:33.304Z,99960.00
2022-09-11T18:22:00.022Z,99950.69
2022-09-11T18:24:29.802Z,99938.19
2022-09-11T18:27:00.678Z,99951.38
2022-09-11T18:29:35.289Z,99942.22
2022-09-11T18:32:03.432Z,99964.53
2022-09-11T18:34:31.156Z,99953.09
2022-09-11T18:36:59.902Z,99979.50
2022-09-11T18:39:27.409Z,99989.00
2022-09-11T18:41:54.287Z,99970.56
2022-09-11T18:44:25.203Z,99964.09
2022-09-11T18:46:54.007Z,99967.53
2022-09-11T18:49:21.403Z,99970.91
2022-09-11T18:52:22.726Z,99969.03
2022-09-11T18:54:52.685Z,99940.66
2022-09-11T18:57:19.363Z,99957.59
2022-09-11T18:59:46.274Z,99957.38
2022-09-11T19:02:13.003Z,99976.63
2022-09-11T19:04:39.986Z,99958.50
2022-09-11T19:07:06.863Z,99959.28
2022-09-11T19:09:33.583Z,99942.44
2022-09-11T19:12:00.921Z,99970.59
2022-09-11T19:14:27.841Z,99961.91
2022-09-11T19:16:54.620Z,99969.34
2022-09-11T19:19:21.445Z,99950.88
2022-09-11T19:21:48.611Z,99961.00
2022-09-11T19:24:15.308Z,99977.00
2022-09-11T19:26:43.559Z,99991.69
2022-09-11T19:29:13.275Z,99986.91
2022-09-11T19:31:40.414Z,99948.81
2022-09-11T19:34:11.718Z,99971.22
2022-09-11T19:36:39.464Z,99976.91
2022-09-11T19:39:06.358Z,99955.28
2022-09-11T19:41:37.401Z,99977.13
2022-09-11T19:44:06.961Z,99995.22
2022-09-11T19:46:34.793Z,99993.38
2022-09-11T19:49:03.571Z,99992.63
2022-09-11T19:51:34.304Z,99941.94
2022-09-11T19:54:04.608Z,99969.75
2022-09-11T19:56:35.153Z,99959.84
2022-09-11T19:59:02.354Z,99948.00
2022-09-11T20:01:30.789Z,99993.44
2022-09-11T20:04:00.398Z,99995.56
2022-09-11T20:06:32.282Z,100001.16
2022-09-11T20:09:20.221Z,99947.78
2022-09-11T20:11:46.733Z,100003.06
2022-09-11T20:14:13.524Z,99999.56
2022-09-11T20:16:40.276Z,99966.53
2022-09-11T20:19:06.997Z,99999.91
2022-09-11T20:21:36.068Z,100007.41
2022-09-11T20:24:05.140Z,99964.63
2022-09-11T20:26:32.578Z,100009.53
2022-09-11T20:29:07.489Z,100007.34
2022-09-11T20:31:44.825Z,100014.72
2022-09-11T20:34:17.526Z,100017.63
2022-09-11T20:36:44.414Z,100008.19
2022-09-11T20:39:13.655Z,100012.94
2022-09-11T20:41:41.123Z,100002.84
2022-09-11T20:44:07.928Z,100021.78
2022-09-11T20:46:34.634Z,100008.31
2022-09-11T20:49:02.959Z,99996.47
2022-09-11T20:51:30.270Z,100009.78
2022-09-11T20:53:57.115Z,100007.53
2022-09-11T20:56:24.204Z,99999.72
2022-09-11T20:58:51.874Z,100013.03
2022-09-11T21:01:21.703Z,100015.28
2022-09-11T21:03:51.712Z,99993.72
2022-09-11T21:06:24.758Z,100002.94
2022-09-11T21:08:57.824Z,99983.72
2022-09-11T21:11:26.592Z,99994.44
2022-09-11T21:13:53.654Z,99981.50
2022-09-11T21:16:21.027Z,99989.94
2022-09-11T21:18:51.118Z,99992.25
2022-09-11T21:21:18.792Z,99998.84
2022-09-11T21:23:48.841Z,99960.69
2022-09-11T21:26:17.080Z,99994.31
2022-09-11T21:28:44.301Z,99977.25
2022-09-11T21:31:11.630Z,99985.28
2022-09-11T21:33:39.203Z,99989.22
2022-09-11T21:36:06.763Z,99988.59
2022-09-11T21:38:33.487Z,99985.53
2022-09-11T21:41:02.477Z,99981.19
2022-09-11T21:43:29.682Z,99962.13
2022-09-11T21:45:56.894Z,99994.72
2022-09-11T21:48:23.646Z,99980.75
2022-09-11T21:50:50.883Z,99993.91
2022-09-11T21:53:17.673Z,99967.25
2022-09-11T21:55:46.646Z,99987.56
2022-09-11T21:58:16.460Z,99987.78
2022-09-11T22:00:43.641Z,99991.88
2022-09-11T22:03:14.229Z,99986.13
2022-09-11T22:05:45.683Z,99988.41
2022-09-11T22:08:14.880Z,99960.72
2022-09-11T22:10:43.676Z,99990.06
2022-09-11T22:13:10.644Z,99989.44
2022-09-11T22:15:45.191Z,99993.16
2022-09-11T22:18:12.192Z,99959.66
2022-09-11T22:20:39.844Z,99975.88
2022-09-11T22:23:07.154Z,99948.97
2022-09-11T22:25:36.659Z,99997.41
2022-09-11T22:28:04.681Z,99999.84
2022-09-11T22:30:31.826Z,99991.88
2022-09-11T22:32:59.739Z,99983.22
2022-09-11T22:35:27.427Z,99990.22
2022-09-11T22:37:54.135Z,99993.72
2022-09-11T22:40:20.842Z,99995.16
2022-09-11T22:42:47.567Z,99991.66
2022-09-11T22:45:14.305Z,99977.72
2022-09-11T22:47:41.209Z,99995.19
2022-09-11T22:50:08.522Z,99979.81
2022-09-11T22:52:37.231Z,99984.94
2022-09-11T22:55:05.976Z,99964.78
2022-09-11T22:57:35.139Z,99918.97
2022-09-11T23:00:04.725Z,99973.97
2022-09-11T23:02:31.381Z,99983.84
2022-09-11T23:05:16.651Z,99981.78
2022-09-11T23:07:43.577Z,99970.09
2022-09-11T23:10:11.052Z,99986.94
2022-09-11T23:12:37.689Z,99949.13
2022-09-11T23:15:05.758Z,99975.78
2022-09-11T23:17:33.441Z,99997.09
2022-09-11T23:20:00.166Z,99941.00
2022-09-11T23:22:27.421Z,100002.41
2022-09-11T23:24:54.249Z,99972.69
2022-09-11T23:27:20.917Z,99918.53
2022-09-11T23:29:47.536Z,99992.66
2022-09-11T23:32:14.198Z,99983.81
2022-09-11T23:34:40.821Z,99893.44
2022-09-11T23:37:07.447Z,99978.25
2022-09-11T23:39:34.077Z,99983.19
2022-09-11T23:42:00.697Z,99977.00
2022-09-11T23:44:27.311Z,99986.22
2022-09-11T23:46:54.110Z,99980.03
2022-09-11T23:49:21.034Z,99975.53
2022-09-11T23:51:49.016Z,99970.19
2022-09-11T23:54:16.268Z,99965.84
2022-09-11T23:56:43.128Z,99982.22
2022-09-11T23:59:09.760Z,99981.97
